Time;durP1;ratioP1;P1;durP2;ratioP2;P2;SDS_P1;SDS_P2;PMS_P1;PMS_P2;Temp;Humidity;BMP_temperature;BMP_pressure;BME280_temperature;BME280_humidity;BME280_pressure;Samples;Min_cycle;Max_cycle;Signal;HPM_P1;HPM_P2
2023/04/20 00:00:20;;;;;;;6.88;6.30;;;8.20;99.90;;;;;;5072830;28;20221;-82
2023/04/20 00:02:49;;;;;;;7.95;6.43;;;8.20;99.90;;;;;;5072675;28;20253;-83
2023/04/20 00:05:17;;;;;;;7.75;7.10;;;8.20;99.90;;;;;;5073062;28;20209;-83
2023/04/20 00:07:47;;;;;;;7.53;6.75;;;8.20;99.90;;;;;;5072868;28;20201;-82
2023/04/20 00:10:15;;;;;;;8.00;7.20;;;8.20;99.90;;;;;;5072677;28;20202;-82
2023/04/20 00:12:43;;;;;;;10.70;8.57;;;8.20;99.90;;;;;;5072584;28;20221;-82
2023/04/20 00:15:13;;;;;;;8.98;8.10;;;8.20;99.90;;;;;;5072590;28;20209;-83
2023/04/20 00:17:43;;;;;;;8.50;7.57;;;8.10;99.90;;;;;;5073131;28;20203;-83
2023/04/20 00:20:14;;;;;;;9.80;8.07;;;8.10;99.90;;;;;;5072901;28;20215;-82
2023/04/20 00:22:42;;;;;;;7.60;6.90;;;8.10;99.90;;;;;;5072639;28;20236;-82
2023/04/20 00:25:10;;;;;;;10.63;8.63;;;8.00;99.90;;;;;;5072665;28;20239;-83
2023/04/20 00:27:38;;;;;;;7.50;6.78;;;8.10;99.90;;;;;;5072563;28;20223;-81
2023/04/20 00:30:09;;;;;;;8.40;7.60;;;8.10;99.90;;;;;;5072826;28;20224;-82
2023/04/20 00:32:39;;;;;;;11.45;7.70;;;8.10;99.90;;;;;;5072367;28;20228;-82
2023/04/20 00:35:08;;;;;;;7.70;6.97;;;8.00;99.90;;;;;;5072665;28;20236;-82
2023/04/20 00:37:36;;;;;;;9.23;7.97;;;8.10;99.90;;;;;;5072740;28;20308;-82
2023/04/20 00:40:06;;;;;;;8.15;7.35;;;8.00;99.90;;;;;;5072145;28;20205;-83
2023/04/20 00:42:34;;;;;;;10.10;7.30;;;7.90;99.90;;;;;;5072144;28;20228;-82
2023/04/20 00:45:03;;;;;;;9.10;7.95;;;7.90;99.90;;;;;;5072230;28;20212;-82
2023/04/20 00:47:31;;;;;;;7.50;6.78;;;7.90;99.90;;;;;;5072277;28;20213;-82
2023/04/20 00:50:01;;;;;;;8.05;7.30;;;7.80;99.90;;;;;;5072186;28;20235;-83
2023/04/20 00:52:29;;;;;;;8.55;7.22;;;7.80;99.90;;;;;;5073573;28;20227;-82
2023/04/20 00:54:57;;;;;;;8.90;7.70;;;7.80;99.90;;;;;;5076348;28;20222;-82
2023/04/20 00:57:28;;;;;;;10.02;6.82;;;7.80;99.90;;;;;;5076575;28;20197;-82
2023/04/20 00:59:56;;;;;;;9.32;7.82;;;7.70;99.90;;;;;;5076673;28;20205;-82
2023/04/20 01:02:24;;;;;;;8.75;7.85;;;7.70;99.90;;;;;;5075980;28;20224;-82
2023/04/20 01:04:54;;;;;;;8.18;7.05;;;7.70;99.90;;;;;;5076433;28;20204;-82
2023/04/20 01:07:24;;;;;;;7.35;6.65;;;7.80;99.90;;;;;;5076400;28;20196;-83
2023/04/20 01:09:52;;;;;;;7.55;6.75;;;7.80;99.90;;;;;;5076153;28;20292;-83
2023/04/20 01:12:20;;;;;;;11.20;7.43;;;7.70;99.90;;;;;;5075647;28;20235;-82
2023/04/20 01:14:48;;;;;;;6.80;6.13;;;7.70;99.90;;;;;;5076108;28;20309;-83
2023/04/20 01:17:17;;;;;;;7.75;6.95;;;7.70;99.90;;;;;;5076278;28;20209;-82
2023/04/20 01:19:45;;;;;;;6.78;6.18;;;7.70;99.90;;;;;;5076374;28;20212;-83
2023/04/20 01:22:17;;;;;;;6.63;6.07;;;7.60;99.90;;;;;;5075434;28;20225;-82
2023/04/20 01:24:45;;;;;;;6.97;6.07;;;7.60;99.90;;;;;;5076459;28;20209;-83
2023/04/20 01:27:15;;;;;;;7.28;6.57;;;7.60;99.90;;;;;;5075578;28;20204;-82
2023/04/20 01:29:43;;;;;;;6.68;6.07;;;7.50;99.90;;;;;;5076213;28;20216;-82
2023/04/20 01:32:12;;;;;;;7.10;6.25;;;7.60;99.90;;;;;;5075548;28;20221;-82
2023/04/20 01:34:41;;;;;;;6.40;5.90;;;7.60;99.90;;;;;;5076396;28;20209;-82
2023/04/20 01:37:09;;;;;;;7.55;6.80;;;7.60;99.90;;;;;;5075790;28;20205;-83
2023/04/20 01:39:40;;;;;;;7.93;7.20;;;7.50;99.90;;;;;;5075691;28;20201;-83
2023/04/20 01:42:08;;;;;;;6.18;5.60;;;7.50;99.90;;;;;;5074853;28;20237;-82
2023/04/20 01:44:37;;;;;;;6.03;5.53;;;7.50;99.90;;;;;;5075768;28;20227;-83
2023/04/20 01:47:05;;;;;;;6.78;6.20;;;7.60;99.90;;;;;;5075672;28;20208;-82
2023/04/20 01:49:33;;;;;;;8.18;6.25;;;7.60;99.90;;;;;;5075407;28;20201;-82
2023/04/20 01:52:02;;;;;;;6.47;5.88;;;7.60;99.90;;;;;;5075201;28;20221;-83
2023/04/20 01:54:30;;;;;;;7.68;6.88;;;7.60;99.90;;;;;;5075409;28;20205;-83
2023/04/20 01:57:01;;;;;;;6.57;5.97;;;7.60;99.90;;;;;;5075578;28;20244;-82
2023/04/20 01:59:29;;;;;;;7.45;6.60;;;7.60;99.90;;;;;;5075460;28;20209;-82
2023/04/20 02:01:58;;;;;;;5.95;5.45;;;7.60;99.90;;;;;;5074694;28;20231;-82
2023/04/20 02:04:26;;;;;;;6.15;5.60;;;7.50;99.90;;;;;;5074217;28;20205;-82
2023/04/20 02:06:55;;;;;;;7.68;6.88;;;7.50;99.90;;;;;;5075167;28;20212;-83
2023/04/20 02:09:23;;;;;;;8.02;7.22;;;7.50;99.90;;;;;;5075466;28;20215;-82
2023/04/20 02:11:51;;;;;;;6.72;6.05;;;7.50;99.90;;;;;;5074521;28;20248;-82
2023/04/20 02:14:21;;;;;;;7.22;6.53;;;7.50;99.90;;;;;;5074978;28;20205;-83
2023/04/20 02:16:51;;;;;;;6.18;5.68;;;7.50;99.90;;;;;;5074670;28;20265;-82
2023/04/20 02:19:20;;;;;;;7.43;6.72;;;7.40;99.90;;;;;;5074733;28;20235;-82
2023/04/20 02:21:48;;;;;;;7.25;6.55;;;7.40;99.90;;;;;;5074317;28;20225;-83
2023/04/20 02:24:16;;;;;;;7.65;6.40;;;7.40;99.90;;;;;;5075060;28;20217;-82
2023/04/20 02:26:45;;;;;;;7.95;7.15;;;7.40;99.90;;;;;;5074977;28;20207;-82
2023/04/20 02:29:13;;;;;;;8.35;7.22;;;7.40;99.90;;;;;;5074906;28;20221;-82
2023/04/20 02:31:42;;;;;;;7.20;6.50;;;7.40;99.90;;;;;;5074786;28;20215;-82
2023/04/20 02:34:11;;;;;;;7.97;7.22;;;7.40;99.90;;;;;;5074968;28;20201;-82
2023/04/20 02:36:39;;;;;;;9.00;7.90;;;7.30;99.90;;;;;;5075038;28;20300;-82
2023/04/20 02:39:08;;;;;;;8.57;7.68;;;7.30;99.90;;;;;;5074630;28;20209;-82
2023/04/20 02:41:36;;;;;;;8.35;7.53;;;7.30;99.90;;;;;;5074099;28;20225;-82
2023/04/20 02:44:05;;;;;;;11.48;8.05;;;7.30;99.90;;;;;;5074926;28;20213;-83
2023/04/20 02:46:33;;;;;;;10.52;8.30;;;7.30;99.90;;;;;;5074168;28;20203;-82
2023/04/20 02:49:03;;;;;;;9.48;8.07;;;7.20;99.90;;;;;;5074949;28;20235;-82
2023/04/20 02:51:31;;;;;;;9.10;8.10;;;7.20;99.90;;;;;;5073960;28;20209;-82
2023/04/20 02:53:59;;;;;;;8.38;7.55;;;7.20;99.90;;;;;;5074083;28;20209;-82
2023/04/20 02:56:28;;;;;;;8.98;8.07;;;7.20;99.90;;;;;;5074241;28;20216;-82
2023/04/20 02:58:56;;;;;;;10.57;8.80;;;7.20;99.90;;;;;;5074471;28;20205;-82
2023/04/20 03:01:24;;;;;;;8.73;7.93;;;7.20;99.90;;;;;;5074411;28;20205;-83
2023/04/20 03:03:52;;;;;;;9.57;8.70;;;7.20;99.90;;;;;;5074620;28;20294;-83
2023/04/20 03:06:22;;;;;;;9.07;8.23;;;7.10;99.90;;;;;;5073925;28;20240;-82
2023/04/20 03:08:50;;;;;;;8.55;7.70;;;7.10;99.90;;;;;;5073877;28;20208;-82
2023/04/20 03:11:18;;;;;;;10.48;8.77;;;7.10;99.90;;;;;;5073801;28;20219;-83
2023/04/20 03:13:47;;;;;;;10.07;9.07;;;7.10;99.90;;;;;;5074300;28;20221;-82
2023/04/20 03:16:15;;;;;;;8.88;8.05;;;7.10;99.90;;;;;;5073402;28;20205;-83
2023/04/20 03:18:44;;;;;;;8.73;7.93;;;7.10;99.90;;;;;;5073896;28;20212;-82
2023/04/20 03:21:13;;;;;;;8.85;8.13;;;7.00;99.90;;;;;;5073552;28;20216;-82
2023/04/20 03:23:43;;;;;;;8.55;7.85;;;7.00;99.90;;;;;;5073241;28;20315;-82
2023/04/20 03:26:11;;;;;;;8.88;8.02;;;7.00;99.90;;;;;;5073999;28;20220;-82
2023/04/20 03:28:40;;;;;;;11.07;8.38;;;7.00;99.90;;;;;;5073712;28;20223;-83
2023/04/20 03:31:08;;;;;;;20.98;9.55;;;6.90;99.90;;;;;;5073365;28;20287;-82
2023/04/20 03:33:36;;;;;;;9.80;8.82;;;6.90;99.90;;;;;;5073221;28;20223;-81
2023/04/20 03:36:05;;;;;;;13.80;9.30;;;6.90;99.90;;;;;;5073523;28;20213;-82
2023/04/20 03:38:33;;;;;;;9.82;8.93;;;6.80;99.90;;;;;;5074079;28;20215;-82
2023/04/20 03:41:03;;;;;;;10.30;9.40;;;6.80;99.90;;;;;;5073454;28;20213;-81
2023/04/20 03:43:32;;;;;;;10.65;9.02;;;6.80;99.90;;;;;;5072951;28;20308;-82
2023/04/20 03:46:00;;;;;;;12.77;8.68;;;6.70;99.90;;;;;;5073003;28;20231;-82
2023/04/20 03:48:29;;;;;;;9.75;8.85;;;6.70;99.90;;;;;;5072915;28;20211;-82
2023/04/20 03:50:59;;;;;;;12.75;9.50;;;6.70;99.90;;;;;;5073348;28;20208;-82
2023/04/20 03:53:28;;;;;;;10.80;9.77;;;6.60;99.90;;;;;;5072930;28;20252;-82
2023/04/20 03:55:57;;;;;;;11.10;10.00;;;6.60;99.90;;;;;;5073346;28;20205;-83
2023/04/20 03:58:26;;;;;;;9.55;8.55;;;6.60;99.90;;;;;;5073297;28;20251;-83
2023/04/20 04:01:01;;;;;;;9.48;8.63;;;6.60;99.90;;;;;;5073271;28;20228;-83
2023/04/20 04:03:30;;;;;;;10.98;9.82;;;6.60;99.90;;;;;;5072724;28;20225;-82
2023/04/20 04:05:59;;;;;;;11.30;9.93;;;6.60;99.90;;;;;;5073030;28;20197;-83
2023/04/20 04:08:27;;;;;;;10.93;9.80;;;6.50;99.90;;;;;;5072769;28;20210;-82
2023/04/20 04:10:55;;;;;;;17.67;11.18;;;6.60;99.90;;;;;;5072943;28;20227;-83
2023/04/20 04:13:23;;;;;;;13.18;11.73;;;6.60;99.90;;;;;;5072125;28;20227;-82
2023/04/20 04:15:53;;;;;;;11.60;10.50;;;6.60;99.90;;;;;;5072794;28;20215;-82
2023/04/20 04:18:21;;;;;;;11.63;10.52;;;6.60;99.90;;;;;;5072790;28;20231;-82
2023/04/20 04:20:50;;;;;;;15.20;12.07;;;6.60;99.90;;;;;;5072673;28;20211;-83
2023/04/20 04:23:18;;;;;;;20.70;10.18;;;6.70;99.90;;;;;;5072101;28;20240;-82
2023/04/20 04:25:47;;;;;;;14.73;11.85;;;6.70;99.90;;;;;;5072676;28;20205;-82
2023/04/20 04:28:16;;;;;;;14.48;12.55;;;6.70;99.90;;;;;;5072456;28;20288;-82
2023/04/20 04:30:44;;;;;;;11.60;10.55;;;6.80;99.90;;;;;;5072896;28;20293;-82
2023/04/20 04:33:13;;;;;;;13.85;11.63;;;6.80;99.90;;;;;;5072779;28;20235;-82
2023/04/20 04:35:42;;;;;;;13.10;11.90;;;6.80;99.90;;;;;;5072473;28;20205;-82
2023/04/20 04:38:12;;;;;;;13.20;11.90;;;6.80;99.90;;;;;;5072740;28;20212;-81
2023/04/20 04:40:44;;;;;;;13.10;11.80;;;6.90;99.90;;;;;;5072529;28;20205;-82
2023/04/20 04:43:12;;;;;;;13.45;11.82;;;6.90;99.90;;;;;;5071961;28;20287;-82
2023/04/20 04:45:40;;;;;;;14.82;13.40;;;7.00;99.90;;;;;;5072521;28;20220;-82
2023/04/20 04:48:10;;;;;;;13.38;12.07;;;7.00;99.90;;;;;;5072307;28;20216;-82
2023/04/20 04:50:41;;;;;;;12.88;11.60;;;7.00;99.90;;;;;;5072281;28;20204;-82
2023/04/20 04:53:09;;;;;;;15.13;13.18;;;7.10;99.90;;;;;;5072065;28;20229;-82
2023/04/20 04:55:38;;;;;;;13.82;12.25;;;7.10;99.90;;;;;;5071960;28;20261;-83
2023/04/20 04:58:06;;;;;;;14.20;11.43;;;7.10;99.90;;;;;;5072699;28;20224;-82
2023/04/20 05:00:34;;;;;;;14.63;13.10;;;7.10;99.90;;;;;;5072328;28;20215;-82
2023/04/20 05:03:02;;;;;;;12.65;11.32;;;7.20;99.90;;;;;;5071960;28;20440;-82
2023/04/20 05:05:31;;;;;;;16.15;13.68;;;7.20;99.90;;;;;;5072064;28;20248;-82
2023/04/20 05:08:01;;;;;;;16.45;13.70;;;7.20;99.90;;;;;;5072626;28;20212;-82
2023/04/20 05:10:29;;;;;;;12.43;11.30;;;7.20;99.90;;;;;;5071867;28;20205;-83
2023/04/20 05:12:58;;;;;;;12.82;11.50;;;7.30;99.90;;;;;;5071686;28;20225;-82
2023/04/20 05:15:26;;;;;;;14.43;12.90;;;7.30;99.90;;;;;;5072239;28;20307;-83
2023/04/20 05:17:55;;;;;;;12.80;11.55;;;7.40;99.90;;;;;;5071996;28;20231;-82
2023/04/20 05:20:23;;;;;;;11.82;10.63;;;7.40;99.90;;;;;;5071671;28;20221;-82
2023/04/20 05:22:51;;;;;;;16.98;12.02;;;7.50;99.90;;;;;;5069329;28;20228;-83
2023/04/20 05:25:21;;;;;;;15.13;12.65;;;7.50;99.90;;;;;;5069049;28;20223;-82
2023/04/20 05:27:50;;;;;;;13.65;12.35;;;7.50;99.90;;;;;;5069691;28;20207;-82
2023/04/20 05:30:18;;;;;;;14.55;13.00;;;7.60;99.90;;;;;;5070104;28;20227;-82
2023/04/20 05:32:50;;;;;;;13.65;12.05;;;7.60;99.90;;;;;;5069807;28;20225;-82
2023/04/20 05:35:20;;;;;;;12.07;10.98;;;7.60;99.90;;;;;;5069631;28;20206;-82
2023/04/20 05:37:49;;;;;;;13.73;12.23;;;7.60;99.90;;;;;;5070212;28;20209;-82
2023/04/20 05:40:17;;;;;;;14.20;12.80;;;7.70;99.90;;;;;;5073869;28;20217;-82
2023/04/20 05:42:47;;;;;;;13.30;11.57;;;7.70;99.90;;;;;;5073130;28;20220;-81
2023/04/20 05:45:15;;;;;;;12.55;11.25;;;7.70;99.90;;;;;;5073621;28;20238;-81
2023/04/20 05:47:53;;;;;;;13.07;11.85;;;7.80;99.90;;;;;;5073469;28;20213;-82
2023/04/20 05:50:21;;;;;;;12.98;11.60;;;7.80;99.90;;;;;;5073411;28;20228;-81
2023/04/20 05:52:50;;;;;;;18.38;12.43;;;7.80;99.90;;;;;;5073094;28;20231;-82
2023/04/20 05:55:19;;;;;;;14.38;12.88;;;7.80;99.90;;;;;;5073200;28;20207;-82
2023/04/20 05:57:51;;;;;;;16.25;13.68;;;7.80;99.90;;;;;;5073192;28;20236;-82
2023/04/20 06:00:20;;;;;;;13.98;12.45;;;7.90;99.90;;;;;;5073878;28;20213;-82
2023/04/20 06:02:53;;;;;;;13.75;12.35;;;7.90;99.90;;;;;;5073136;28;20223;-82
2023/04/20 06:05:21;;;;;;;15.77;11.65;;;7.90;99.90;;;;;;5073124;28;20229;-82
2023/04/20 06:07:50;;;;;;;14.50;12.98;;;7.80;99.90;;;;;;5073196;28;20263;-81
2023/04/20 06:10:18;;;;;;;12.80;11.50;;;7.90;99.90;;;;;;5073201;28;20213;-82
2023/04/20 06:12:47;;;;;;;12.32;11.02;;;7.90;99.90;;;;;;5072698;28;20256;-82
2023/04/20 06:15:16;;;;;;;22.65;12.70;;;7.90;99.90;;;;;;5073020;28;20217;-82
2023/04/20 06:17:45;;;;;;;13.73;12.43;;;7.90;99.90;;;;;;5072447;28;20262;-82
2023/04/20 06:20:13;;;;;;;15.63;13.50;;;7.80;99.90;;;;;;5072735;28;20208;-82
2023/04/20 06:22:44;;;;;;;12.93;11.70;;;7.90;99.90;;;;;;5072470;28;20319;-82
2023/04/20 06:25:14;;;;;;;15.38;13.25;;;8.00;99.90;;;;;;5072528;28;20221;-82
2023/04/20 06:27:42;;;;;;;13.13;11.82;;;8.00;99.90;;;;;;5073032;28;20227;-82
2023/04/20 06:30:12;;;;;;;16.40;13.00;;;8.10;99.90;;;;;;5072379;28;20209;-82
2023/04/20 06:32:41;;;;;;;14.48;13.07;;;8.20;99.90;;;;;;5072159;28;20315;-82
2023/04/20 06:35:10;;;;;;;14.57;13.05;;;8.30;99.90;;;;;;5072012;28;20213;-88
2023/04/20 06:37:40;;;;;;;14.40;12.45;;;8.40;99.90;;;;;;5072054;28;20213;-80
2023/04/20 06:40:09;;;;;;;13.80;12.48;;;8.40;99.90;;;;;;5072337;28;20241;-87
2023/04/20 06:42:37;;;;;;;17.17;11.48;;;8.50;99.90;;;;;;5072623;28;20312;-88
2023/04/20 06:45:06;;;;;;;13.00;11.07;;;8.50;99.90;;;;;;5074124;28;20237;-88
2023/04/20 06:47:34;;;;;;;13.02;11.75;;;8.60;99.90;;;;;;5073807;28;20304;-88
2023/04/20 06:50:08;;;;;;;12.77;11.43;;;8.70;99.90;;;;;;5073694;28;20232;-88
2023/04/20 06:52:37;;;;;;;13.63;12.20;;;8.80;99.90;;;;;;5073603;28;20267;-87
2023/04/20 06:55:06;;;;;;;18.80;13.05;;;8.80;99.90;;;;;;5074683;28;20209;-88
2023/04/20 06:57:36;;;;;;;13.05;11.80;;;8.80;99.90;;;;;;5073453;28;20215;-88
2023/04/20 07:00:08;;;;;;;13.52;11.23;;;8.80;99.90;;;;;;5074323;28;20208;-88
2023/04/20 07:02:44;;;;;;;12.65;11.05;;;8.90;99.90;;;;;;5073300;28;20221;-84
2023/04/20 07:05:14;;;;;;;16.20;12.05;;;9.00;99.90;;;;;;5073827;28;20224;-83
2023/04/20 07:07:43;;;;;;;12.90;11.18;;;9.00;99.90;;;;;;5074057;28;20197;-82
2023/04/20 07:10:13;;;;;;;11.88;10.63;;;9.10;99.90;;;;;;5074026;28;20208;-84
2023/04/20 07:12:42;;;;;;;13.07;11.27;;;9.10;99.90;;;;;;5073378;28;20236;-82
2023/04/20 07:15:11;;;;;;;12.32;11.20;;;9.20;99.90;;;;;;5073858;28;20202;-83
2023/04/20 07:17:40;;;;;;;13.35;11.25;;;9.30;99.90;;;;;;5073831;28;20293;-84
2023/04/20 07:20:09;;;;;;;24.02;12.50;;;9.30;99.90;;;;;;5065331;28;20216;-83
2023/04/20 07:22:39;;;;;;;12.68;11.38;;;9.40;99.90;;;;;;5053721;28;20242;-84
2023/04/20 07:25:09;;;;;;;11.20;10.10;;;9.50;99.90;;;;;;5053446;28;20222;-83
2023/04/20 07:27:39;;;;;;;13.00;11.65;;;9.60;99.90;;;;;;5053785;28;20284;-83
2023/04/20 07:30:10;;;;;;;11.80;10.70;;;9.70;99.90;;;;;;5053287;28;20288;-82
2023/04/20 07:32:40;;;;;;;11.35;10.00;;;9.80;99.90;;;;;;5062978;28;20292;-83
2023/04/20 07:35:09;;;;;;;13.15;9.95;;;9.90;99.90;;;;;;5073468;28;20209;-83
2023/04/20 07:37:39;;;;;;;12.57;11.43;;;10.00;99.90;;;;;;5069813;28;20257;-83
2023/04/20 07:40:09;;;;;;;12.40;11.18;;;10.10;99.90;;;;;;5054686;28;20202;-83
2023/04/20 07:42:37;;;;;;;11.55;10.45;;;10.20;99.90;;;;;;5071723;28;20232;-83
2023/04/20 07:45:07;;;;;;;13.07;11.70;;;10.30;99.90;;;;;;5073025;28;20235;-83
2023/04/20 07:47:36;;;;;;;12.50;10.30;;;10.40;99.90;;;;;;5072058;28;20232;-82
2023/04/20 07:50:05;;;;;;;12.30;11.10;;;10.50;99.90;;;;;;5073500;28;20200;-83
2023/04/20 07:52:34;;;;;;;12.52;11.32;;;10.50;99.90;;;;;;5072602;28;20232;-83
2023/04/20 07:55:06;;;;;;;13.35;11.30;;;10.50;99.90;;;;;;5073055;28;20193;-83
2023/04/20 07:57:35;;;;;;;12.25;10.52;;;10.50;99.90;;;;;;5073026;28;20223;-83
2023/04/20 08:00:05;;;;;;;13.90;11.77;;;10.50;99.90;;;;;;5073061;28;20291;-83
2023/04/20 08:02:34;;;;;;;11.07;10.18;;;10.50;99.90;;;;;;5072151;28;20277;-82
2023/04/20 08:05:02;;;;;;;11.65;10.27;;;10.30;99.90;;;;;;5072430;28;20217;-83
2023/04/20 08:07:32;;;;;;;15.80;12.80;;;10.30;99.90;;;;;;5055033;28;20271;-83
2023/04/20 08:10:02;;;;;;;13.90;10.75;;;10.40;99.90;;;;;;5071895;28;20201;-83
2023/04/20 08:12:32;;;;;;;12.77;11.38;;;10.40;99.90;;;;;;5070841;28;20221;-83
2023/04/20 08:15:03;;;;;;;15.23;11.68;;;10.50;99.90;;;;;;5072880;28;20220;-83
2023/04/20 08:17:31;;;;;;;12.48;11.13;;;10.70;99.90;;;;;;5071233;28;20200;-82
2023/04/20 08:20:01;;;;;;;13.18;11.43;;;10.70;99.90;;;;;;5065492;28;20211;-82
2023/04/20 08:22:29;;;;;;;11.98;10.70;;;10.90;99.90;;;;;;5071838;28;20300;-82
2023/04/20 08:24:58;;;;;;;12.85;11.45;;;11.10;99.90;;;;;;5071610;28;20220;-82
2023/04/20 08:27:28;;;;;;;15.65;11.85;;;11.50;99.90;;;;;;5072211;28;20236;-84
2023/04/20 08:29:58;;;;;;;11.70;10.60;;;11.80;99.90;;;;;;5072590;28;20266;-83
2023/04/20 08:32:26;;;;;;;11.23;10.30;;;11.90;99.90;;;;;;5071574;28;20229;-84
2023/04/20 08:34:56;;;;;;;11.55;10.35;;;11.90;99.90;;;;;;5072710;28;20205;-87
2023/04/20 08:37:24;;;;;;;10.60;9.63;;;11.90;99.90;;;;;;5072268;28;20266;-88
2023/04/20 08:39:53;;;;;;;12.65;10.73;;;12.00;99.90;;;;;;5072620;28;20215;-88
2023/04/20 08:42:21;;;;;;;11.20;10.10;;;12.00;99.90;;;;;;5072073;28;20276;-88
2023/04/20 08:44:49;;;;;;;11.75;10.45;;;12.20;99.90;;;;;;5072106;28;20224;-89
2023/04/20 08:47:20;;;;;;;11.38;10.32;;;12.30;99.90;;;;;;5072546;28;20211;-88
2023/04/20 08:49:53;;;;;;;13.05;11.57;;;12.30;99.90;;;;;;5072336;28;20205;-89
2023/04/20 08:52:21;;;;;;;11.43;9.18;;;12.20;99.90;;;;;;5071503;28;20233;-80
2023/04/20 08:54:49;;;;;;;10.98;10.00;;;12.60;99.90;;;;;;5069714;28;20254;-85
2023/04/20 08:57:24;;;;;;;10.32;9.38;;;13.20;99.90;;;;;;5064897;28;20246;-83
2023/04/20 08:59:52;;;;;;;12.98;11.23;;;13.70;99.90;;;;;;5069786;28;20193;-83
2023/04/20 09:02:22;;;;;;;12.07;10.95;;;13.80;99.90;;;;;;5070324;28;20259;-82
2023/04/20 09:05:02;;;;;;;11.25;10.10;;;14.00;99.90;;;;;;5072014;28;20255;-83
2023/04/20 09:07:31;;;;;;;11.07;9.98;;;14.40;99.90;;;;;;5072407;28;20219;-84
2023/04/20 09:10:01;;;;;;;13.35;10.20;;;14.90;99.90;;;;;;5072226;28;20213;-84
2023/04/20 09:12:40;;;;;;;10.77;9.82;;;15.30;99.90;;;;;;5071802;28;20251;-82
2023/04/20 09:15:09;;;;;;;11.52;10.38;;;15.70;99.90;;;;;;5075668;28;20219;-84
2023/04/20 09:17:40;;;;;;;11.02;10.13;;;16.30;99.90;;;;;;5073480;28;20212;-84
2023/04/20 09:20:10;;;;;;;10.40;9.52;;;16.80;99.90;;;;;;5076157;28;20204;-84
2023/04/20 09:22:38;;;;;;;10.65;9.75;;;17.20;99.90;;;;;;5075526;28;20289;-84
2023/04/20 09:25:14;;;;;;;10.43;9.40;;;17.90;99.90;;;;;;5055858;28;20273;-84
2023/04/20 09:27:42;;;;;;;11.05;9.93;;;18.40;99.90;;;;;;5062055;28;20197;-84
2023/04/20 09:30:12;;;;;;;10.70;9.77;;;18.70;99.90;;;;;;5074244;28;20211;-83
2023/04/20 09:32:42;;;;;;;9.35;8.55;;;19.20;99.90;;;;;;5075344;28;20240;-82
2023/04/20 09:35:10;;;;;;;11.07;9.93;;;19.40;99.90;;;;;;5072828;28;20251;-84
2023/04/20 09:37:47;;;;;;;9.45;8.70;;;19.80;99.90;;;;;;5073489;28;20205;-83
2023/04/20 09:40:18;;;;;;;10.55;9.63;;;20.00;99.90;;;;;;5075773;28;20205;-83
2023/04/20 09:42:48;;;;;;;15.18;10.23;;;20.10;99.30;;;;;;5074920;28;20221;-82
2023/04/20 09:45:18;;;;;;;14.00;9.45;;;20.00;98.40;;;;;;5075165;28;20215;-84
2023/04/20 09:47:49;;;;;;;10.25;9.35;;;19.60;99.40;;;;;;5075324;28;20197;-84
2023/04/20 09:50:20;;;;;;;10.05;9.13;;;19.60;99.90;;;;;;5072438;28;20280;-84
2023/04/20 09:53:00;;;;;;;10.23;9.30;;;19.90;99.90;;;;;;5075422;28;20233;-84
2023/04/20 09:55:31;;;;;;;9.90;9.10;;;20.30;99.90;;;;;;5074706;28;20236;-85
2023/04/20 09:58:01;;;;;;;14.70;9.68;;;20.60;98.90;;;;;;5075064;28;20208;-83
2023/04/20 10:00:30;;;;;;;11.95;10.70;;;20.90;97.80;;;;;;5075149;28;20283;-81
2023/04/20 10:02:59;;;;;;;10.98;9.23;;;21.20;97.40;;;;;;5075258;28;20212;-84
2023/04/20 10:05:36;;;;;;;12.65;9.88;;;21.40;96.60;;;;;;5074774;28;20196;-84
2023/04/20 10:08:04;;;;;;;10.60;9.60;;;21.80;96.60;;;;;;5072131;28;20193;-83
2023/04/20 10:10:44;;;;;;;11.10;10.10;;;21.50;97.60;;;;;;5074944;28;20239;-82
2023/04/20 10:13:12;;;;;;;10.55;9.48;;;21.40;96.90;;;;;;5074741;28;20225;-80
2023/04/20 10:15:41;;;;;;;13.52;9.18;;;21.10;97.50;;;;;;5074851;28;20205;-82
2023/04/20 10:18:23;;;;;;;10.48;9.50;;;21.00;97.20;;;;;;5075441;28;20212;-82
2023/04/20 10:21:04;;;;;;;10.23;9.23;;;20.70;97.10;;;;;;5075191;28;20213;-83
2023/04/20 10:23:32;;;;;;;12.80;9.90;;;20.20;96.90;;;;;;5069763;28;20308;-82
2023/04/20 10:26:01;;;;;;;12.48;9.48;;;20.10;97.70;;;;;;5061605;28;20252;-82
2023/04/20 10:28:39;;;;;;;11.18;9.40;;;20.00;98.10;;;;;;5074615;28;20201;-82
2023/04/20 10:31:11;;;;;;;11.07;8.55;;;20.20;98.90;;;;;;5074692;28;20297;-82
2023/04/20 10:33:51;;;;;;;9.68;8.68;;;20.10;98.70;;;;;;5074067;28;20224;-82
2023/04/20 10:36:28;;;;;;;9.95;8.95;;;20.10;98.20;;;;;;5074242;28;20208;-81
2023/04/20 10:38:57;;;;;;;8.23;7.43;;;19.80;98.40;;;;;;5066319;28;20224;-82
2023/04/20 10:41:26;;;;;;;9.50;8.50;;;19.60;98.90;;;;;;5054572;28;20213;-84
2023/04/20 10:43:54;;;;;;;11.18;9.63;;;19.60;99.80;;;;;;5054127;28;20229;-82
2023/04/20 10:46:23;;;;;;;12.82;9.45;;;19.50;99.90;;;;;;5054224;28;20276;-82
2023/04/20 10:48:54;;;;;;;11.98;8.65;;;19.50;99.40;;;;;;5054312;28;20221;-82
2023/04/20 10:51:24;;;;;;;11.55;9.73;;;19.70;98.90;;;;;;5054507;28;20216;-84
2023/04/20 10:54:00;;;;;;;9.52;8.60;;;19.80;99.80;;;;;;5061336;28;20219;-81
2023/04/20 10:56:37;;;;;;;9.40;8.60;;;20.00;99.60;;;;;;5073493;28;20201;-80
2023/04/20 10:59:09;;;;;;;9.13;8.43;;;20.20;99.90;;;;;;5073362;28;20227;-81
2023/04/20 11:01:37;;;;;;;10.32;9.30;;;20.30;99.90;;;;;;5073834;28;20219;-82
2023/04/20 11:04:08;;;;;;;9.25;8.35;;;20.30;99.20;;;;;;5073795;28;20205;-82
2023/04/20 11:06:36;;;;;;;9.77;7.93;;;20.30;97.60;;;;;;5073323;28;20221;-82
2023/04/20 11:09:05;;;;;;;8.52;7.80;;;20.70;98.40;;;;;;5074128;28;20212;-81
2023/04/20 11:11:36;;;;;;;9.57;8.65;;;20.90;98.20;;;;;;5073635;28;20201;-82
2023/04/20 11:14:08;;;;;;;13.43;9.38;;;21.00;98.30;;;;;;5074232;28;20201;-82
2023/04/20 11:16:37;;;;;;;9.60;8.70;;;21.10;97.20;;;;;;5073866;28;20240;-82
2023/04/20 11:19:25;;;;;;;9.35;8.32;;;21.30;95.90;;;;;;5073592;28;20219;-81
2023/04/20 11:21:54;;;;;;;9.82;8.82;;;21.70;95.80;;;;;;5073250;28;20229;-80
2023/04/20 11:24:25;;;;;;;10.75;8.80;;;21.80;95.00;;;;;;5072967;28;20220;-81
2023/04/20 11:26:54;;;;;;;9.05;8.15;;;21.80;95.10;;;;;;5073578;28;20225;-80
2023/04/20 11:29:34;;;;;;;8.52;7.60;;;22.00;95.00;;;;;;5073608;28;20299;-81
2023/04/20 11:32:05;;;;;;;10.38;9.27;;;22.30;94.90;;;;;;5069900;28;20281;-80
2023/04/20 11:34:36;;;;;;;10.80;9.65;;;22.50;93.80;;;;;;5073221;28;20235;-80
2023/04/20 11:37:06;;;;;;;9.93;7.88;;;22.70;91.40;;;;;;5073350;28;20197;-81
2023/04/20 11:39:34;;;;;;;8.40;7.57;;;22.40;92.90;;;;;;5073619;28;20275;-81
2023/04/20 11:42:03;;;;;;;9.07;7.18;;;22.20;92.50;;;;;;5074081;28;20225;-80
2023/04/20 11:44:32;;;;;;;8.40;7.65;;;22.30;89.70;;;;;;5074109;28;20208;-80
2023/04/20 11:47:00;;;;;;;10.40;7.35;;;22.40;90.10;;;;;;5074086;28;20217;-81
2023/04/20 11:49:29;;;;;;;10.30;6.90;;;22.50;90.10;;;;;;5073380;28;20265;-81
2023/04/20 11:52:00;;;;;;;8.73;7.82;;;22.60;90.90;;;;;;5073573;28;20217;-82
2023/04/20 11:54:31;;;;;;;7.80;7.00;;;22.50;91.30;;;;;;5074348;28;20247;-81
2023/04/20 11:56:59;;;;;;;7.82;7.22;;;22.60;90.80;;;;;;5073801;28;20205;-82
2023/04/20 11:59:28;;;;;;;8.57;7.15;;;22.60;92.00;;;;;;5072252;28;20213;-81
2023/04/20 12:01:56;;;;;;;7.97;7.22;;;23.20;90.20;;;;;;5072795;28;20225;-81
2023/04/20 12:04:25;;;;;;;9.88;7.32;;;23.40;89.90;;;;;;5072761;28;20280;-84
2023/04/20 12:06:53;;;;;;;13.52;6.82;;;23.30;87.20;;;;;;5072878;28;20221;-82
2023/04/20 12:09:23;;;;;;;7.50;6.80;;;23.20;88.70;;;;;;5072720;28;20233;-86
2023/04/20 12:11:51;;;;;;;6.80;6.20;;;23.00;88.80;;;;;;5072399;28;20287;-81
2023/04/20 12:14:19;;;;;;;7.25;6.65;;;23.10;88.50;;;;;;5071908;28;20201;-81
2023/04/20 12:16:48;;;;;;;7.68;6.90;;;23.40;89.00;;;;;;5072181;28;20197;-81
2023/04/20 12:19:16;;;;;;;9.25;8.30;;;23.70;85.80;;;;;;5066844;28;20198;-81
2023/04/20 12:21:46;;;;;;;7.47;6.82;;;23.50;84.20;;;;;;5057730;28;20210;-81
2023/04/20 12:24:14;;;;;;;10.13;7.82;;;23.40;86.80;;;;;;5052847;28;20224;-81
2023/04/20 12:26:44;;;;;;;8.85;8.02;;;23.30;86.80;;;;;;5052617;28;20209;-81
2023/04/20 12:29:13;;;;;;;8.57;7.57;;;22.70;86.90;;;;;;5053029;28;20216;-81
2023/04/20 12:31:41;;;;;;;7.85;7.20;;;22.50;85.80;;;;;;5052529;28;20206;-81
2023/04/20 12:34:09;;;;;;;9.35;7.45;;;22.40;88.10;;;;;;5068671;28;20243;-81
2023/04/20 12:36:38;;;;;;;8.02;7.32;;;22.10;90.10;;;;;;5072632;28;20219;-81
2023/04/20 12:39:06;;;;;;;23.40;7.38;;;21.60;89.00;;;;;;5072378;28;20218;-81
2023/04/20 12:41:35;;;;;;;9.00;7.40;;;21.50;90.40;;;;;;5072289;28;20305;-81
2023/04/20 12:44:04;;;;;;;7.28;6.63;;;21.50;90.90;;;;;;5072314;28;20207;-81
2023/04/20 12:46:42;;;;;;;7.50;6.90;;;21.80;90.50;;;;;;5072379;28;20235;-81
2023/04/20 12:49:10;;;;;;;7.22;6.55;;;22.10;89.20;;;;;;5071646;28;20240;-81
2023/04/20 12:51:39;;;;;;;10.43;7.78;;;22.30;90.00;;;;;;5072089;28;20213;-82
2023/04/20 12:54:08;;;;;;;7.68;6.97;;;22.60;89.60;;;;;;5072190;28;20211;-81